KDPA/DPA METAR and TAF weather

Enter ICAO airport designator
Station Type Date Time Source
KDPA METAR 2021/07/28 02:52 UTC NOAA

KDPA 280252Z 00000KT 10SM CLR 24/21 A3002 RMK AO2 SLP161 T02390206 52008


Station Type Date Time Source
KDPA Decoded METAR 2021/07/28 02:52 UTC NOAA

CHICAGO/WEST CH DUPAGE, IL, United States (KDPA) 41-54N 88-15W 230M
Jul 27, 2021 - 10:52 PM EDT / 2021.07.28 0252 UTC
Wind: Calm:0
Visibility: 10 mile(s):0
Sky conditions: clear
Temperature: 75.0 F (23.9 C)
Dew Point: 69.1 F (20.6 C)
Relative Humidity: 81%
Pressure (altimeter): 30.02 in. Hg (1016 hPa)
Pressure tendency: 0.02 inches (0.8 hPa) higher than three hours ago
ob: KDPA 280252Z 00000KT 10SM CLR 24/21 A3002 RMK AO2 SLP161 T02390206 52008
cycle: 3

Station Type Date Time Source
KDPA TAF 2021/07/28 03:03 UTC NOAA

TAF
AMD KDPA 280301Z 2803/2824 23005KT P6SM SCT250
FM281400 29006KT P6SM SCT035 BKN200

Example: see airport list